Time;durP1;ratioP1;P1;durP2;ratioP2;P2;SDS_P1;SDS_P2;PMS_P1;PMS_P2;Temp;Humidity;BMP_temperature;BMP_pressure;BME280_temperature;BME280_humidity;BME280_pressure;Samples;Min_cycle;Max_cycle;Signal;HPM_P1;HPM_P2
2023/08/28 00:00:15;;;;;;;1.90;1.15;;;;;;;;;;5131218;27;20472;-60
2023/08/28 00:02:42;;;;;;;2.50;1.30;;;;;;;;;;5134921;27;20385;-59
2023/08/28 00:05:09;;;;;;;2.10;1.35;;;;;;;;;;5134093;27;20051;-59
2023/08/28 00:07:36;;;;;;;2.15;1.25;;;;;;;;;;5134627;27;20051;-60
2023/08/28 00:10:03;;;;;;;4.90;1.83;;;;;;;;;;5134419;27;20503;-60
2023/08/28 00:12:36;;;;;;;2.03;1.58;;;;;;;;;;5118567;27;20058;-59
2023/08/28 00:15:03;;;;;;;3.05;1.42;;;;;;;;;;5114087;27;20050;-59
2023/08/28 00:17:31;;;;;;;1.90;1.45;;;;;;;;;;5113265;28;20059;-59
2023/08/28 00:19:57;;;;;;;2.00;1.20;;;;;;;;;;5113888;28;20051;-59
2023/08/28 00:22:25;;;;;;;2.35;1.25;;;;;;;;;;5113888;28;20055;-59
2023/08/28 00:24:52;;;;;;;2.00;1.40;;;;;;;;;;5114190;28;20047;-60
2023/08/28 00:27:19;;;;;;;2.45;1.30;;;;;;;;;;5113601;28;20078;-59
2023/08/28 00:29:47;;;;;;;2.03;1.23;;;;;;;;;;5112870;28;20070;-59
2023/08/28 00:32:14;;;;;;;2.05;1.35;;;;;;;;;;5113442;28;20055;-59
2023/08/28 00:34:40;;;;;;;2.17;1.30;;;;;;;;;;5113175;28;20051;-60
2023/08/28 00:37:07;;;;;;;2.63;1.40;;;;;;;;;;5113517;28;20180;-60
2023/08/28 00:39:34;;;;;;;1.50;1.10;;;;;;;;;;5113504;28;20063;-59
2023/08/28 00:42:01;;;;;;;1.77;1.08;;;;;;;;;;5113167;28;20078;-59
2023/08/28 00:44:31;;;;;;;2.65;1.45;;;;;;;;;;5113525;27;20055;-59
2023/08/28 00:47:00;;;;;;;2.03;1.27;;;;;;;;;;5113201;28;20480;-60
2023/08/28 00:49:27;;;;;;;2.30;1.10;;;;;;;;;;5112931;28;20503;-60
2023/08/28 00:51:54;;;;;;;2.33;1.42;;;;;;;;;;5113049;28;20059;-60
2023/08/28 00:54:21;;;;;;;2.08;1.13;;;;;;;;;;5113225;28;20052;-59
2023/08/28 00:56:51;;;;;;;2.45;1.27;;;;;;;;;;5113236;28;20055;-60
2023/08/28 00:59:18;;;;;;;2.15;1.50;;;;;;;;;;5114228;27;20141;-60
2023/08/28 01:01:45;;;;;;;1.88;1.15;;;;;;;;;;5092898;28;20052;-59
2023/08/28 01:04:14;;;;;;;2.42;1.58;;;;;;;;;;5092430;28;20493;-59
2023/08/28 01:06:46;;;;;;;3.47;1.55;;;;;;;;;;5092592;28;20059;-59
2023/08/28 01:09:19;;;;;;;3.05;1.70;;;;;;;;;;5092486;28;20485;-59
2023/08/28 01:11:51;;;;;;;2.78;1.45;;;;;;;;;;5097537;28;20059;-59
2023/08/28 01:14:20;;;;;;;2.67;1.45;;;;;;;;;;5113606;27;20056;-59
2023/08/28 01:16:48;;;;;;;2.25;1.45;;;;;;;;;;5119794;27;20039;-59
2023/08/28 01:19:24;;;;;;;2.05;1.23;;;;;;;;;;5133066;27;20055;-59
2023/08/28 01:21:54;;;;;;;2.38;2.08;;;;;;;;;;5133292;27;20073;-60
2023/08/28 01:24:21;;;;;;;2.97;1.52;;;;;;;;;;5127449;27;20066;-59
2023/08/28 01:26:50;;;;;;;2.13;1.70;;;;;;;;;;5112707;28;20054;-59
2023/08/28 01:29:16;;;;;;;2.47;1.95;;;;;;;;;;5117022;28;20058;-60
2023/08/28 01:31:43;;;;;;;2.20;1.55;;;;;;;;;;5132745;28;20487;-59
2023/08/28 01:34:10;;;;;;;1.73;1.10;;;;;;;;;;5133076;28;20507;-59
2023/08/28 01:36:39;;;;;;;2.72;1.50;;;;;;;;;;5132964;28;20063;-59
2023/08/28 01:39:10;;;;;;;2.30;1.48;;;;;;;;;;5132923;28;20051;-60
2023/08/28 01:41:37;;;;;;;4.80;1.50;;;;;;;;;;5133041;28;20047;-59
2023/08/28 01:44:07;;;;;;;2.45;1.75;;;;;;;;;;5127028;28;20147;-59
2023/08/28 01:46:34;;;;;;;2.70;1.17;;;;;;;;;;5112282;28;20495;-59
2023/08/28 01:49:01;;;;;;;2.25;1.65;;;;;;;;;;5112844;28;20493;-59
2023/08/28 01:51:28;;;;;;;5.65;1.70;;;;;;;;;;5112332;28;20059;-59
2023/08/28 01:53:55;;;;;;;2.03;1.20;;;;;;;;;;5112696;28;20051;-59
2023/08/28 01:56:22;;;;;;;2.95;1.60;;;;;;;;;;5112526;28;20500;-59
2023/08/28 01:58:50;;;;;;;1.85;1.25;;;;;;;;;;5112554;28;20417;-59
2023/08/28 02:01:18;;;;;;;2.45;1.65;;;;;;;;;;5111808;28;20057;-60
2023/08/28 02:03:45;;;;;;;4.10;1.38;;;;;;;;;;5112547;28;20060;-59
2023/08/28 02:06:11;;;;;;;1.60;1.00;;;;;;;;;;5112386;28;20373;-59
2023/08/28 02:08:38;;;;;;;2.30;1.08;;;;;;;;;;5112636;28;20381;-59
2023/08/28 02:11:05;;;;;;;2.67;1.75;;;;;;;;;;5112452;28;20051;-59
2023/08/28 02:13:32;;;;;;;2.60;1.50;;;;;;;;;;5112488;28;20048;-59
2023/08/28 02:15:59;;;;;;;2.28;1.48;;;;;;;;;;5112359;28;20052;-59
2023/08/28 02:18:28;;;;;;;2.08;1.50;;;;;;;;;;5112325;28;20055;-59
2023/08/28 02:20:55;;;;;;;1.92;1.23;;;;;;;;;;5112233;28;20469;-60
2023/08/28 02:23:21;;;;;;;2.78;1.30;;;;;;;;;;5112109;28;20050;-59
2023/08/28 02:25:49;;;;;;;2.30;1.20;;;;;;;;;;5112004;28;20052;-59
2023/08/28 02:28:18;;;;;;;1.75;1.50;;;;;;;;;;5112378;28;20063;-59
2023/08/28 02:30:45;;;;;;;1.85;1.23;;;;;;;;;;5112703;28;20515;-59
2023/08/28 02:33:12;;;;;;;2.00;1.60;;;;;;;;;;5112122;28;20058;-59
2023/08/28 02:35:40;;;;;;;2.05;1.48;;;;;;;;;;5112231;28;20063;-59
2023/08/28 02:38:08;;;;;;;2.35;1.80;;;;;;;;;;5128060;28;20403;-59
2023/08/28 02:40:35;;;;;;;2.13;1.30;;;;;;;;;;5133219;27;20137;-59
2023/08/28 02:43:05;;;;;;;2.03;1.33;;;;;;;;;;5115614;27;20491;-60
2023/08/28 02:45:33;;;;;;;2.58;1.85;;;;;;;;;;5117322;27;20052;-59
2023/08/28 02:47:59;;;;;;;1.85;1.30;;;;;;;;;;5115780;28;20047;-59
2023/08/28 02:50:26;;;;;;;2.63;1.52;;;;;;;;;;5115667;28;20051;-59
2023/08/28 02:52:54;;;;;;;2.75;1.70;;;;;;;;;;5115872;28;20047;-60
2023/08/28 02:55:22;;;;;;;2.30;1.77;;;;;;;;;;5115237;28;20055;-59
2023/08/28 02:57:49;;;;;;;1.73;1.50;;;;;;;;;;5115436;28;20054;-59
2023/08/28 03:00:18;;;;;;;2.95;1.65;;;;;;;;;;5116728;27;20416;-60
2023/08/28 03:02:45;;;;;;;4.32;1.90;;;;;;;;;;5115079;28;20062;-60
2023/08/28 03:05:12;;;;;;;2.10;1.65;;;;;;;;;;5115052;28;20051;-59
2023/08/28 03:07:39;;;;;;;2.45;1.60;;;;;;;;;;5115115;28;20412;-59
2023/08/28 03:10:08;;;;;;;2.20;1.40;;;;;;;;;;5114085;28;20051;-58
2023/08/28 03:12:35;;;;;;;;;;;;;;;;;;5115146;27;20495;-60
2023/08/28 03:15:02;;;;;;;3.17;1.20;;;;;;;;;;5115302;27;20314;-59
2023/08/28 03:17:28;;;;;;;2.45;1.80;;;;;;;;;;5106892;28;20059;-60
2023/08/28 03:19:54;;;;;;;2.53;1.40;;;;;;;;;;5114999;28;20055;-60
2023/08/28 03:22:21;;;;;;;1.70;1.23;;;;;;;;;;5114548;28;20047;-59
2023/08/28 03:24:48;;;;;;;1.95;1.25;;;;;;;;;;5114872;28;20063;-60
2023/08/28 03:27:16;;;;;;;3.00;1.63;;;;;;;;;;5114287;28;20053;-60
2023/08/28 03:29:43;;;;;;;4.50;1.98;;;;;;;;;;5114707;27;20499;-60
2023/08/28 03:32:09;;;;;;;4.28;1.80;;;;;;;;;;5119316;27;20400;-59
2023/08/28 03:34:36;;;;;;;2.38;1.58;;;;;;;;;;5114756;28;20480;-60
2023/08/28 03:37:03;;;;;;;2.97;1.55;;;;;;;;;;5114606;28;20488;-60
2023/08/28 03:39:30;;;;;;;2.85;1.90;;;;;;;;;;5114832;28;20059;-59
2023/08/28 03:41:56;;;;;;;2.03;1.48;;;;;;;;;;5114158;28;20052;-60
2023/08/28 03:44:24;;;;;;;2.95;2.00;;;;;;;;;;5115014;27;20047;-60
2023/08/28 03:46:52;;;;;;;1.90;1.40;;;;;;;;;;5114437;28;20051;-58
2023/08/28 03:49:19;;;;;;;3.17;1.80;;;;;;;;;;5114486;28;20062;-59
2023/08/28 03:51:46;;;;;;;2.53;1.77;;;;;;;;;;5113756;28;20052;-60
2023/08/28 03:54:13;;;;;;;3.20;1.83;;;;;;;;;;5114064;28;20055;-59
2023/08/28 03:56:40;;;;;;;2.40;1.48;;;;;;;;;;5114319;28;20480;-59
2023/08/28 03:59:07;;;;;;;3.70;1.77;;;;;;;;;;5113555;27;20054;-60
2023/08/28 04:01:35;;;;;;;2.10;1.70;;;;;;;;;;5113638;28;20075;-59
2023/08/28 04:04:02;;;;;;;2.67;1.70;;;;;;;;;;5114374;28;20056;-60
2023/08/28 04:06:29;;;;;;;3.33;2.15;;;;;;;;;;5113814;28;20048;-59
2023/08/28 04:08:56;;;;;;;2.15;1.85;;;;;;;;;;5114126;28;20067;-60
2023/08/28 04:11:23;;;;;;;3.33;2.03;;;;;;;;;;5113670;28;20055;-60
2023/08/28 04:13:50;;;;;;;3.83;2.17;;;;;;;;;;5114833;27;20459;-60
2023/08/28 04:16:18;;;;;;;2.97;1.88;;;;;;;;;;5113487;28;20059;-61
2023/08/28 04:18:46;;;;;;;2.38;1.83;;;;;;;;;;5113689;28;20047;-60
2023/08/28 04:21:14;;;;;;;3.38;1.90;;;;;;;;;;5113996;28;20059;-60
2023/08/28 04:23:41;;;;;;;2.83;1.77;;;;;;;;;;5113840;28;20051;-60
2023/08/28 04:26:08;;;;;;;2.80;1.73;;;;;;;;;;5113463;28;20052;-60
2023/08/28 04:28:35;;;;;;;3.58;1.83;;;;;;;;;;5113924;27;20039;-60
2023/08/28 04:31:02;;;;;;;2.65;2.05;;;;;;;;;;5111203;27;20054;-60
2023/08/28 04:33:29;;;;;;;3.97;2.25;;;;;;;;;;5113886;27;20048;-59
2023/08/28 04:35:58;;;;;;;2.83;1.88;;;;;;;;;;5108757;27;20052;-61
2023/08/28 04:38:25;;;;;;;5.85;2.40;;;;;;;;;;5103300;28;20056;-60
2023/08/28 04:40:52;;;;;;;4.13;2.03;;;;;;;;;;5106468;27;20055;-59
2023/08/28 04:43:18;;;;;;;3.45;2.15;;;;;;;;;;5114585;27;20055;-60
2023/08/28 04:45:45;;;;;;;3.20;2.05;;;;;;;;;;5113014;27;20055;-60
2023/08/28 04:48:12;;;;;;;3.50;1.80;;;;;;;;;;5098835;28;20381;-60
2023/08/28 04:50:39;;;;;;;3.60;2.25;;;;;;;;;;5092820;28;20055;-59
2023/08/28 04:53:08;;;;;;;6.07;2.42;;;;;;;;;;5116177;27;20059;-61
2023/08/28 04:55:37;;;;;;;2.92;2.10;;;;;;;;;;5133915;27;20439;-61
2023/08/28 04:58:04;;;;;;;3.08;2.03;;;;;;;;;;5131436;27;20405;-60
2023/08/28 05:00:30;;;;;;;2.17;1.75;;;;;;;;;;5113006;28;20058;-60
2023/08/28 05:02:57;;;;;;;2.90;2.05;;;;;;;;;;5112902;28;20062;-60
2023/08/28 05:05:24;;;;;;;4.65;2.08;;;;;;;;;;5112167;28;20067;-60
2023/08/28 05:07:51;;;;;;;3.03;2.30;;;;;;;;;;5112887;28;20051;-60
2023/08/28 05:10:19;;;;;;;3.30;2.30;;;;;;;;;;5112613;28;20051;-59
2023/08/28 05:12:45;;;;;;;3.88;2.33;;;;;;;;;;5113179;27;20084;-61
2023/08/28 05:15:12;;;;;;;2.88;2.10;;;;;;;;;;5111457;28;20386;-59
2023/08/28 05:17:39;;;;;;;5.60;2.75;;;;;;;;;;5112686;28;20070;-61
2023/08/28 05:20:06;;;;;;;4.07;2.38;;;;;;;;;;5112418;28;20133;-61
2023/08/28 05:22:33;;;;;;;4.18;2.38;;;;;;;;;;5112740;28;20048;-60
2023/08/28 05:25:00;;;;;;;5.20;3.03;;;;;;;;;;5112415;28;20051;-60
2023/08/28 05:27:28;;;;;;;3.15;2.63;;;;;;;;;;5112482;28;20061;-60
2023/08/28 05:29:55;;;;;;;3.90;2.53;;;;;;;;;;5111757;28;20055;-60
2023/08/28 05:32:22;;;;;;;3.42;2.50;;;;;;;;;;5112574;28;20055;-60
2023/08/28 05:34:48;;;;;;;5.03;2.67;;;;;;;;;;5112381;28;20052;-60
2023/08/28 05:37:15;;;;;;;3.20;2.40;;;;;;;;;;5112437;28;20400;-60
2023/08/28 05:39:43;;;;;;;5.32;3.15;;;;;;;;;;5112298;28;20055;-60
2023/08/28 05:42:10;;;;;;;5.65;3.00;;;;;;;;;;5112396;28;20058;-59
2023/08/28 05:44:38;;;;;;;5.00;2.60;;;;;;;;;;5112064;28;20064;-59
2023/08/28 05:47:05;;;;;;;3.65;2.85;;;;;;;;;;5112715;28;20056;-59
2023/08/28 05:49:32;;;;;;;4.45;2.97;;;;;;;;;;5105203;28;20494;-60
2023/08/28 05:51:59;;;;;;;4.47;2.83;;;;;;;;;;5107959;28;20514;-60
2023/08/28 05:54:26;;;;;;;3.80;2.65;;;;;;;;;;5112783;28;20476;-60
2023/08/28 05:56:52;;;;;;;6.38;3.05;;;;;;;;;;5107449;28;20398;-60
2023/08/28 05:59:19;;;;;;;5.07;2.97;;;;;;;;;;5105260;28;20481;-60
2023/08/28 06:01:47;;;;;;;3.80;3.03;;;;;;;;;;5108322;28;20054;-61
2023/08/28 06:04:14;;;;;;;5.35;3.20;;;;;;;;;;5108374;28;20500;-61
2023/08/28 06:06:41;;;;;;;4.28;2.95;;;;;;;;;;5109325;28;20070;-60
2023/08/28 06:09:07;;;;;;;4.35;2.78;;;;;;;;;;5106295;28;20055;-60
2023/08/28 06:11:34;;;;;;;5.28;3.67;;;;;;;;;;5112056;28;20047;-60
2023/08/28 06:14:01;;;;;;;4.78;3.58;;;;;;;;;;5112201;28;20055;-60
2023/08/28 06:16:28;;;;;;;5.07;3.70;;;;;;;;;;5114062;28;20047;-60
2023/08/28 06:18:56;;;;;;;7.63;3.65;;;;;;;;;;5115808;28;20055;-60
2023/08/28 06:21:23;;;;;;;5.53;2.88;;;;;;;;;;5116250;28;20056;-60
2023/08/28 06:23:50;;;;;;;4.60;2.90;;;;;;;;;;5116012;28;20074;-60
2023/08/28 06:26:17;;;;;;;4.30;2.70;;;;;;;;;;5115925;28;20496;-60
2023/08/28 06:28:43;;;;;;;5.13;3.15;;;;;;;;;;5114768;27;20400;-60
2023/08/28 06:31:11;;;;;;;5.55;3.25;;;;;;;;;;5115011;28;20082;-61
2023/08/28 06:33:38;;;;;;;4.93;2.70;;;;;;;;;;5115911;28;20055;-60
2023/08/28 06:36:06;;;;;;;4.63;2.90;;;;;;;;;;5113424;28;20058;-60
2023/08/28 06:38:33;;;;;;;5.38;3.30;;;;;;;;;;5100557;28;20079;-59
2023/08/28 06:41:01;;;;;;;10.05;3.97;;;;;;;;;;5091431;28;20048;-60
2023/08/28 06:43:29;;;;;;;5.30;3.47;;;;;;;;;;5089527;28;20062;-60
2023/08/28 06:45:55;;;;;;;4.90;2.92;;;;;;;;;;5091646;28;20048;-61
2023/08/28 06:48:22;;;;;;;8.38;3.15;;;;;;;;;;5091405;28;20036;-61
2023/08/28 06:50:51;;;;;;;4.05;2.65;;;;;;;;;;5091432;28;20139;-60
2023/08/28 06:53:19;;;;;;;3.77;2.30;;;;;;;;;;5093105;28;20060;-60
2023/08/28 06:55:46;;;;;;;3.67;2.50;;;;;;;;;;5092452;28;20482;-44
2023/08/28 06:58:12;;;;;;;4.35;2.85;;;;;;;;;;5093369;28;20445;-44
2023/08/28 07:00:39;;;;;;;3.88;2.40;;;;;;;;;;5090231;28;20056;-44
2023/08/28 07:03:06;;;;;;;4.22;2.80;;;;;;;;;;5086622;28;20053;-44
2023/08/28 07:05:33;;;;;;;3.20;2.13;;;;;;;;;;5086765;28;20043;-44
2023/08/28 07:07:59;;;;;;;3.65;2.42;;;;;;;;;;5083792;28;20475;-44
2023/08/28 07:10:27;;;;;;;3.55;2.55;;;;;;;;;;5074570;28;20058;-43
2023/08/28 07:12:54;;;;;;;3.72;2.30;;;;;;;;;;5072302;28;20412;-43
2023/08/28 07:15:48;;;;;;;4.90;2.70;;;;;;;;;;5086981;28;20424;-43
2023/08/28 07:18:16;;;;;;;4.53;2.83;;;;;;;;;;5086180;28;20052;-61
2023/08/28 07:20:43;;;;;;;5.53;2.83;;;;;;;;;;5076915;28;20048;-61
2023/08/28 07:23:10;;;;;;;4.63;2.42;;;;;;;;;;5084004;28;20071;-62
2023/08/28 07:25:38;;;;;;;4.43;2.60;;;;;;;;;;5083558;28;21425;-61
2023/08/28 07:28:06;;;;;;;5.05;2.78;;;;;;;;;;5081162;28;21351;-62
2023/08/28 07:30:32;;;;;;;4.25;2.67;;;;;;;;;;5082101;28;20095;-62
2023/08/28 07:32:59;;;;;;;3.97;2.97;;;;;;;;;;5077614;28;20048;-62
2023/08/28 07:35:29;;;;;;;5.95;3.42;;;;;;;;;;5084180;28;20044;-61
2023/08/28 07:37:55;;;;;;;4.07;2.42;;;;;;;;;;5098872;27;20048;-62
2023/08/28 07:40:22;;;;;;;4.20;2.22;;;;;;;;;;5099130;28;20761;-62
2023/08/28 07:42:50;;;;;;;4.30;2.47;;;;;;;;;;5105453;28;20062;-62
2023/08/28 07:45:17;;;;;;;5.57;3.22;;;;;;;;;;5101909;27;20492;-62
2023/08/28 07:47:44;;;;;;;7.60;3.38;;;;;;;;;;5106849;28;20058;-62
2023/08/28 07:50:11;;;;;;;5.05;3.00;;;;;;;;;;5101355;28;20048;-62
2023/08/28 07:52:38;;;;;;;6.50;2.92;;;;;;;;;;5099980;28;20047;-61
2023/08/28 07:55:06;;;;;;;4.20;2.72;;;;;;;;;;5101400;28;20646;-62
2023/08/28 07:57:34;;;;;;;5.75;2.58;;;;;;;;;;5095414;28;20468;-62
2023/08/28 08:00:06;;;;;;;5.78;2.60;;;;;;;;;;5105636;27;20051;-63
2023/08/28 08:02:33;;;;;;;4.72;2.95;;;;;;;;;;5099609;28;20047;-62
2023/08/28 08:05:00;;;;;;;3.97;2.30;;;;;;;;;;5097497;28;20059;-62
2023/08/28 08:07:27;;;;;;;6.40;2.80;;;;;;;;;;5101881;28;20075;-63
2023/08/28 08:09:53;;;;;;;4.90;2.67;;;;;;;;;;5101148;28;20388;-62
2023/08/28 08:12:20;;;;;;;4.40;2.30;;;;;;;;;;5102295;28;20039;-60
2023/08/28 08:14:47;;;;;;;3.45;2.05;;;;;;;;;;5100704;27;20051;-60
2023/08/28 08:17:15;;;;;;;4.15;2.45;;;;;;;;;;5102385;28;20511;-61
2023/08/28 08:19:42;;;;;;;4.50;2.38;;;;;;;;;;5099590;28;20051;-61
2023/08/28 08:22:09;;;;;;;3.97;1.90;;;;;;;;;;5090819;28;20063;-62
2023/08/28 08:24:36;;;;;;;3.30;1.85;;;;;;;;;;5093755;27;20079;-61
2023/08/28 08:27:03;;;;;;;3.05;1.98;;;;;;;;;;5094048;28;20063;-62
2023/08/28 08:29:30;;;;;;;3.73;2.17;;;;;;;;;;5099919;28;20501;-62
2023/08/28 08:31:57;;;;;;;3.70;1.90;;;;;;;;;;5099050;28;20055;-62
2023/08/28 08:34:25;;;;;;;3.20;1.70;;;;;;;;;;5096552;28;20047;-62
2023/08/28 08:36:52;;;;;;;3.28;1.65;;;;;;;;;;5097845;28;20494;-62
2023/08/28 08:39:19;;;;;;;2.47;1.30;;;;;;;;;;5097307;28;20052;-62
2023/08/28 08:41:46;;;;;;;4.88;1.88;;;;;;;;;;5094303;28;20052;-62
2023/08/28 08:44:13;;;;;;;3.95;2.35;;;;;;;;;;5099943;27;20058;-61
2023/08/28 08:46:41;;;;;;;3.03;1.33;;;;;;;;;;5098307;28;20060;-62
2023/08/28 08:49:12;;;;;;;2.20;1.27;;;;;;;;;;5105090;28;20059;-62
2023/08/28 08:51:42;;;;;;;2.65;1.17;;;;;;;;;;5103235;28;20432;-62
2023/08/28 08:54:13;;;;;;;2.40;1.42;;;;;;;;;;5103807;28;20485;-62
2023/08/28 08:56:41;;;;;;;3.55;1.58;;;;;;;;;;5093976;28;20059;-61
2023/08/28 08:59:09;;;;;;;2.05;1.33;;;;;;;;;;5096104;28;20505;-61
2023/08/28 09:01:37;;;;;;;1.83;1.02;;;;;;;;;;5098976;28;20051;-61
2023/08/28 09:04:05;;;;;;;2.50;1.10;;;;;;;;;;5098774;28;20052;-61
2023/08/28 09:06:33;;;;;;;1.75;1.10;;;;;;;;;;5094719;28;20056;-62
2023/08/28 09:09:05;;;;;;;2.00;1.17;;;;;;;;;;5104064;28;20056;-62
2023/08/28 09:11:32;;;;;;;2.50;1.25;;;;;;;;;;5096755;28;20055;-62
2023/08/28 09:13:59;;;;;;;1.88;0.75;;;;;;;;;;5098967;28;20054;-61
2023/08/28 09:16:26;;;;;;;1.23;0.68;;;;;;;;;;5101369;28;20059;-61
2023/08/28 09:18:53;;;;;;;1.75;0.70;;;;;;;;;;5100765;28;20054;-62
2023/08/28 09:21:20;;;;;;;1.20;0.70;;;;;;;;;;5104836;28;20401;-61
2023/08/28 09:23:47;;;;;;;2.67;1.10;;;;;;;;;;5105475;28;20056;-60
2023/08/28 09:26:16;;;;;;;2.38;0.82;;;;;;;;;;5090419;28;20126;-61
2023/08/28 09:28:42;;;;;;;1.42;0.70;;;;;;;;;;5095094;28;20401;-61
2023/08/28 09:31:09;;;;;;;1.17;0.70;;;;;;;;;;5100156;28;20047;-61
2023/08/28 09:33:44;;;;;;;1.30;0.57;;;;;;;;;;5090408;28;20436;-59
2023/08/28 09:36:14;;;;;;;1.85;0.82;;;;;;;;;;5097743;28;20052;-61
2023/08/28 09:38:43;;;;;;;1.25;0.90;;;;;;;;;;5083716;28;20067;-60
2023/08/28 09:41:10;;;;;;;4.80;0.85;;;;;;;;;;5083865;28;20044;-60
2023/08/28 09:43:38;;;;;;;1.40;0.80;;;;;;;;;;5084917;28;20060;-59
2023/08/28 09:46:06;;;;;;;1.50;0.63;;;;;;;;;;5085114;28;20059;-60
2023/08/28 09:48:33;;;;;;;2.35;0.90;;;;;;;;;;5084091;28;20052;-60
2023/08/28 09:51:02;;;;;;;1.17;0.88;;;;;;;;;;5086797;28;20040;-60
2023/08/28 09:53:29;;;;;;;1.33;0.80;;;;;;;;;;5089143;28;20055;-61
2023/08/28 09:55:57;;;;;;;1.98;0.82;;;;;;;;;;5088570;28;20432;-61
2023/08/28 09:58:29;;;;;;;2.28;1.05;;;;;;;;;;5091861;28;20052;-60
2023/08/28 10:00:58;;;;;;;2.08;1.15;;;;;;;;;;5094783;28;20044;-60
2023/08/28 10:03:28;;;;;;;5.43;1.33;;;;;;;;;;5092267;28;20062;-61
2023/08/28 10:05:56;;;;;;;1.45;0.73;;;;;;;;;;5093062;28;20052;-60
2023/08/28 10:08:27;;;;;;;1.25;0.70;;;;;;;;;;5090603;28;20043;-61
2023/08/28 10:10:57;;;;;;;2.10;0.93;;;;;;;;;;5092315;28;20047;-61
2023/08/28 10:13:24;;;;;;;1.85;0.80;;;;;;;;;;5091517;28;20055;-60
2023/08/28 10:15:54;;;;;;;2.00;0.80;;;;;;;;;;5112979;28;20393;-60
2023/08/28 10:18:30;;;;;;;2.03;0.90;;;;;;;;;;5114519;28;20411;-61
2023/08/28 10:20:57;;;;;;;1.85;1.05;;;;;;;;;;5094974;28;20059;-60
2023/08/28 10:23:24;;;;;;;2.92;0.82;;;;;;;;;;5111804;28;20386;-61
2023/08/28 10:25:55;;;;;;;1.77;1.00;;;;;;;;;;5115883;28;20415;-61
2023/08/28 10:28:24;;;;;;;1.70;0.75;;;;;;;;;;5112324;28;20169;-60
2023/08/28 10:30:51;;;;;;;3.28;0.90;;;;;;;;;;5095220;28;20056;-60
2023/08/28 10:33:20;;;;;;;0.90;0.45;;;;;;;;;;5095360;28;20465;-60
2023/08/28 10:35:50;;;;;;;1.70;0.85;;;;;;;;;;5092864;28;20064;-61
2023/08/28 10:38:20;;;;;;;1.45;0.75;;;;;;;;;;5115772;27;20077;-61
2023/08/28 10:40:47;;;;;;;1.00;0.70;;;;;;;;;;5111746;27;20040;-61
2023/08/28 10:43:17;;;;;;;1.77;0.70;;;;;;;;;;5104540;28;20440;-61
2023/08/28 10:45:44;;;;;;;2.38;0.90;;;;;;;;;;5111899;27;20052;-61
2023/08/28 10:48:11;;;;;;;1.50;0.70;;;;;;;;;;5112492;27;20435;-61
2023/08/28 10:50:38;;;;;;;4.60;0.90;;;;;;;;;;5113734;27;20054;-61
2023/08/28 10:53:07;;;;;;;1.33;0.63;;;;;;;;;;5111902;28;20051;-61
2023/08/28 10:55:35;;;;;;;1.00;0.60;;;;;;;;;;5109546;28;20059;-61
2023/08/28 10:58:03;;;;;;;1.65;0.65;;;;;;;;;;5108119;28;20062;-61
2023/08/28 11:00:30;;;;;;;1.40;0.52;;;;;;;;;;5115429;27;20499;-61
2023/08/28 11:03:05;;;;;;;1.30;0.68;;;;;;;;;;5112044;27;20051;-60
2023/08/28 11:05:32;;;;;;;0.88;0.60;;;;;;;;;;5113471;28;20058;-61
2023/08/28 11:08:03;;;;;;;1.30;0.70;;;;;;;;;;5114198;28;20070;-61
2023/08/28 11:10:32;;;;;;;1.38;0.80;;;;;;;;;;5110149;28;20048;-61
2023/08/28 11:13:02;;;;;;;1.60;0.85;;;;;;;;;;5111722;27;20056;-61
2023/08/28 11:15:32;;;;;;;1.20;0.70;;;;;;;;;;5107411;27;20374;-61
2023/08/28 11:18:18;;;;;;;1.60;0.70;;;;;;;;;;5112104;28;20054;-61
2023/08/28 11:20:47;;;;;;;1.83;0.63;;;;;;;;;;5112105;28;20063;-61
2023/08/28 11:23:19;;;;;;;1.02;0.60;;;;;;;;;;5112624;28;20503;-61
2023/08/28 11:25:48;;;;;;;0.95;0.57;;;;;;;;;;5112055;28;20147;-61
2023/08/28 11:28:29;;;;;;;1.38;0.82;;;;;;;;;;5111545;28;20434;-61
2023/08/28 11:31:02;;;;;;;1.20;0.70;;;;;;;;;;5111934;27;20047;-61
2023/08/28 11:33:36;;;;;;;1.00;0.73;;;;;;;;;;5112984;28;20043;-61
2023/08/28 11:36:03;;;;;;;1.88;1.10;;;;;;;;;;5111982;28;20048;-60
2023/08/28 11:38:30;;;;;;;1.85;0.88;;;;;;;;;;5105536;28;20484;-60
2023/08/28 11:41:04;;;;;;;1.45;0.70;;;;;;;;;;5111153;28;20416;-60
2023/08/28 11:43:34;;;;;;;1.20;0.82;;;;;;;;;;5112857;27;20047;-61
2023/08/28 11:46:01;;;;;;;1.58;0.77;;;;;;;;;;5109263;28;20484;-61
2023/08/28 11:48:32;;;;;;;1.30;0.85;;;;;;;;;;5112230;27;20054;-60
2023/08/28 11:51:00;;;;;;;2.45;1.20;;;;;;;;;;5112275;28;20439;-60
2023/08/28 11:53:33;;;;;;;1.33;0.75;;;;;;;;;;5111360;28;20047;-60
2023/08/28 11:56:03;;;;;;;1.73;1.02;;;;;;;;;;5112503;28;20062;-61
2023/08/28 11:58:30;;;;;;;1.42;0.90;;;;;;;;;;5111258;28;20056;-61
2023/08/28 12:00:58;;;;;;;1.58;0.93;;;;;;;;;;5110234;28;20408;-61
2023/08/28 12:03:25;;;;;;;1.55;0.77;;;;;;;;;;5109252;28;20052;-61
2023/08/28 12:06:00;;;;;;;1.38;1.00;;;;;;;;;;5116829;27;20515;-62
2023/08/28 12:08:27;;;;;;;1.40;0.77;;;;;;;;;;5115344;27;20043;-62
2023/08/28 12:10:54;;;;;;;1.08;0.68;;;;;;;;;;5113393;27;20044;-61
2023/08/28 12:13:22;;;;;;;2.03;1.10;;;;;;;;;;5109747;28;20048;-61
2023/08/28 12:15:49;;;;;;;2.03;1.08;;;;;;;;;;5111503;27;20047;-62
2023/08/28 12:18:16;;;;;;;1.33;0.95;;;;;;;;;;5112228;28;20058;-61
2023/08/28 12:20:43;;;;;;;1.75;1.00;;;;;;;;;;5109060;28;20074;-62
2023/08/28 12:23:12;;;;;;;1.60;1.00;;;;;;;;;;5112364;27;20381;-62
2023/08/28 12:25:40;;;;;;;;;;;;;;;;;;5114182;28;20456;-62
2023/08/28 12:28:07;;;;;;;1.73;1.00;;;;;;;;;;5110233;27;19920;-61
2023/08/28 12:30:39;;;;;;;4.03;0.98;;;;;;;;;;5105897;28;20047;-62
2023/08/28 12:33:06;;;;;;;1.60;0.93;;;;;;;;;;5109536;28;20396;-61
2023/08/28 12:35:41;;;;;;;2.45;1.38;;;;;;;;;;5102434;27;20720;-61
2023/08/28 12:38:08;;;;;;;1.33;1.10;;;;;;;;;;5086833;28;20414;-61
2023/08/28 12:40:36;;;;;;;1.33;0.93;;;;;;;;;;5086736;28;20056;-61
2023/08/28 12:43:03;;;;;;;1.95;0.98;;;;;;;;;;5087249;28;20408;-61
2023/08/28 12:45:31;;;;;;;1.70;1.00;;;;;;;;;;5087369;28;20055;-61
2023/08/28 12:47:58;;;;;;;2.67;1.07;;;;;;;;;;5087927;28;20390;-61
2023/08/28 12:50:25;;;;;;;2.65;1.23;;;;;;;;;;5086966;28;20055;-62
2023/08/28 12:52:53;;;;;;;1.50;0.90;;;;;;;;;;5088041;28;20052;-62
2023/08/28 12:55:20;;;;;;;1.50;0.90;;;;;;;;;;5086429;28;20044;-61
2023/08/28 12:57:47;;;;;;;2.00;1.25;;;;;;;;;;5079989;28;20056;-62
2023/08/28 13:00:14;;;;;;;1.70;1.20;;;;;;;;;;5081988;28;20055;-61
2023/08/28 13:02:41;;;;;;;1.67;1.20;;;;;;;;;;5086282;28;20059;-61
2023/08/28 13:05:08;;;;;;;2.67;1.25;;;;;;;;;;5086489;28;20040;-62
2023/08/28 13:07:34;;;;;;;1.80;1.33;;;;;;;;;;5087636;28;20052;-61
2023/08/28 13:10:04;;;;;;;1.60;1.33;;;;;;;;;;5085999;28;20401;-61
2023/08/28 13:12:31;;;;;;;2.33;1.55;;;;;;;;;;5085977;28;20049;-61
2023/08/28 13:14:58;;;;;;;1.63;1.20;;;;;;;;;;5084263;28;20048;-61
2023/08/28 13:17:25;;;;;;;2.38;1.55;;;;;;;;;;5087852;28;20055;-61
2023/08/28 13:19:51;;;;;;;2.05;1.33;;;;;;;;;;5085122;28;20049;-61
2023/08/28 13:22:18;;;;;;;2.90;1.63;;;;;;;;;;5079630;28;20063;-61
2023/08/28 13:24:45;;;;;;;2.40;1.58;;;;;;;;;;5079125;28;20051;-61
2023/08/28 13:27:13;;;;;;;2.00;1.25;;;;;;;;;;5083960;28;20067;-62
2023/08/28 13:29:40;;;;;;;3.08;1.98;;;;;;;;;;5086296;28;20071;-61
2023/08/28 13:32:07;;;;;;;2.13;1.50;;;;;;;;;;5085009;28;20055;-61
2023/08/28 13:34:33;;;;;;;2.00;1.42;;;;;;;;;;5085404;28;20052;-61
2023/08/28 13:37:05;;;;;;;1.90;1.33;;;;;;;;;;5085088;28;20503;-61
2023/08/28 13:39:32;;;;;;;3.53;2.20;;;;;;;;;;5084170;28;20052;-61
2023/08/28 13:41:58;;;;;;;3.30;1.95;;;;;;;;;;5084444;28;20052;-61
2023/08/28 13:44:26;;;;;;;3.42;1.77;;;;;;;;;;5084382;28;20407;-61
2023/08/28 13:46:53;;;;;;;2.30;1.67;;;;;;;;;;5072842;28;20048;-61
2023/08/28 13:49:20;;;;;;;2.53;1.75;;;;;;;;;;5074347;28;20049;-61
2023/08/28 13:51:49;;;;;;;2.63;1.73;;;;;;;;;;5072475;28;20091;-61
2023/08/28 13:54:16;;;;;;;3.08;1.73;;;;;;;;;;5072823;28;20422;-61
2023/08/28 13:56:43;;;;;;;3.88;1.60;;;;;;;;;;5070622;28;20103;-61
2023/08/28 13:59:09;;;;;;;2.70;1.60;;;;;;;;;;5072139;28;20524;-61
2023/08/28 14:01:38;;;;;;;3.85;2.10;;;;;;;;;;5072698;28;20405;-61
2023/08/28 14:04:05;;;;;;;2.15;1.30;;;;;;;;;;5073331;28;20513;-61
2023/08/28 14:06:32;;;;;;;4.45;2.17;;;;;;;;;;5069662;28;20410;-61
2023/08/28 14:08:59;;;;;;;2.60;1.80;;;;;;;;;;5072645;28;20057;-61
2023/08/28 14:11:25;;;;;;;3.00;1.92;;;;;;;;;;5072075;28;20051;-61
2023/08/28 14:13:52;;;;;;;2.92;1.92;;;;;;;;;;5072554;28;20048;-61
2023/08/28 14:16:19;;;;;;;3.58;2.10;;;;;;;;;;5072363;28;20063;-61
2023/08/28 14:18:47;;;;;;;3.30;1.92;;;;;;;;;;5071219;28;20060;-61
2023/08/28 14:21:14;;;;;;;2.07;1.67;;;;;;;;;;5072077;28;20063;-61
2023/08/28 14:23:41;;;;;;;2.58;1.80;;;;;;;;;;5072070;28;20067;-62
2023/08/28 14:26:08;;;;;;;3.35;1.40;;;;;;;;;;5071932;28;20040;-61
2023/08/28 14:28:35;;;;;;;2.95;1.95;;;;;;;;;;5075468;28;20063;-62
2023/08/28 14:31:02;;;;;;;2.20;1.40;;;;;;;;;;5075157;28;20057;-62
2023/08/28 14:33:29;;;;;;;2.58;1.60;;;;;;;;;;5072763;28;20063;-62
2023/08/28 14:35:57;;;;;;;2.25;1.77;;;;;;;;;;5072172;28;20048;-62
2023/08/28 14:38:24;;;;;;;2.72;1.60;;;;;;;;;;5070261;28;20052;-61
2023/08/28 14:40:51;;;;;;;4.47;1.58;;;;;;;;;;5068912;28;20103;-61
2023/08/28 14:43:19;;;;;;;2.35;1.42;;;;;;;;;;5067045;28;20354;-62
2023/08/28 14:45:46;;;;;;;2.35;1.52;;;;;;;;;;5072306;28;20425;-62